Time;durP1;ratioP1;P1;durP2;ratioP2;P2;SDS_P1;SDS_P2;PMS_P1;PMS_P2;Temp;Humidity;BMP_temperature;BMP_pressure;BME280_temperature;BME280_humidity;BME280_pressure;Samples;Min_cycle;Max_cycle;Signal;HPM_P1;HPM_P2
2021/03/03 00:01:49;;;;;;;13.90;6.55;;;;;;;;;;4885656;29;20052;-84
2021/03/03 00:04:15;;;;;;;12.88;7.82;;;;;;;;;;4903675;29;20142;-84
2021/03/03 00:06:41;;;;;;;11.90;6.60;;;;;;;;;;4903080;29;20095;-84
2021/03/03 00:09:07;;;;;;;13.73;7.40;;;;;;;;;;4903038;29;20039;-84
2021/03/03 00:11:33;;;;;;;16.20;7.60;;;;;;;;;;4903360;29;20056;-83
2021/03/03 00:13:59;;;;;;;16.10;7.32;;;;;;;;;;4886763;29;20040;-84
2021/03/03 00:16:26;;;;;;;17.60;7.70;;;;;;;;;;4886176;29;20056;-83
2021/03/03 00:18:52;;;;;;;12.23;6.88;;;;;;;;;;4886373;29;20040;-84
2021/03/03 00:21:18;;;;;;;15.25;7.10;;;;;;;;;;4885916;29;20381;-84
2021/03/03 00:23:44;;;;;;;15.35;7.68;;;;;;;;;;4885996;29;20127;-84
2021/03/03 00:26:10;;;;;;;15.68;7.07;;;;;;;;;;4885708;29;20032;-83
2021/03/03 00:28:36;;;;;;;12.40;7.00;;;;;;;;;;4903267;29;20025;-84
2021/03/03 00:31:02;;;;;;;13.70;6.80;;;;;;;;;;4885675;29;20024;-84
2021/03/03 00:33:28;;;;;;;17.83;7.45;;;;;;;;;;4903304;29;20502;-84
2021/03/03 00:35:54;;;;;;;13.95;6.90;;;;;;;;;;4902651;29;20036;-84
2021/03/03 00:38:21;;;;;;;13.95;7.40;;;;;;;;;;4903052;29;20032;-84
2021/03/03 00:40:47;;;;;;;16.88;7.95;;;;;;;;;;4902431;29;20119;-84
2021/03/03 00:43:13;;;;;;;15.23;7.20;;;;;;;;;;4884966;29;20095;-84
2021/03/03 00:45:40;;;;;;;13.43;7.15;;;;;;;;;;4902548;29;20046;-84
2021/03/03 00:48:06;;;;;;;14.23;7.65;;;;;;;;;;4886042;29;20027;-84
2021/03/03 00:50:32;;;;;;;17.15;7.82;;;;;;;;;;4902552;29;20033;-84
2021/03/03 00:52:58;;;;;;;13.35;7.65;;;;;;;;;;4901962;29;20056;-84
2021/03/03 00:55:24;;;;;;;17.85;7.93;;;;;;;;;;4885850;29;20028;-84
2021/03/03 00:57:50;;;;;;;17.85;8.07;;;;;;;;;;4902171;29;20096;-84
2021/03/03 01:00:17;;;;;;;17.02;7.93;;;;;;;;;;4902400;29;20055;-84
2021/03/03 01:02:43;;;;;;;16.58;7.15;;;;;;;;;;4885243;29;20036;-83
2021/03/03 01:05:09;;;;;;;14.48;8.05;;;;;;;;;;4900970;29;20056;-84
2021/03/03 01:07:35;;;;;;;15.02;7.30;;;;;;;;;;4900435;29;20543;-84
2021/03/03 01:10:01;;;;;;;17.25;6.88;;;;;;;;;;4902461;29;20028;-83
2021/03/03 01:12:27;;;;;;;13.13;7.35;;;;;;;;;;4901677;29;20021;-84
2021/03/03 01:14:53;;;;;;;13.93;7.25;;;;;;;;;;4902543;29;20032;-83
2021/03/03 01:17:19;;;;;;;12.27;7.03;;;;;;;;;;4902025;29;20029;-83
2021/03/03 01:19:46;;;;;;;12.25;7.00;;;;;;;;;;4896174;29;20037;-84
2021/03/03 01:22:12;;;;;;;17.55;7.47;;;;;;;;;;4901439;29;20031;-83
2021/03/03 01:24:38;;;;;;;14.63;7.10;;;;;;;;;;4902470;29;20515;-83
2021/03/03 01:27:04;;;;;;;14.48;6.47;;;;;;;;;;4900510;29;20123;-84
2021/03/03 01:29:30;;;;;;;15.15;8.35;;;;;;;;;;4900690;29;20036;-83
2021/03/03 01:31:56;;;;;;;15.35;7.80;;;;;;;;;;4899898;29;20032;-84
2021/03/03 01:34:22;;;;;;;13.50;6.93;;;;;;;;;;4900317;29;20043;-83
2021/03/03 01:36:48;;;;;;;15.13;6.97;;;;;;;;;;4900303;29;20413;-84
2021/03/03 01:39:14;;;;;;;18.23;8.25;;;;;;;;;;4900238;29;20508;-83
2021/03/03 01:41:40;;;;;;;10.57;5.82;;;;;;;;;;4899190;29;20040;-84
2021/03/03 01:44:07;;;;;;;13.52;7.35;;;;;;;;;;4900242;29;20087;-84
2021/03/03 01:46:33;;;;;;;11.65;6.80;;;;;;;;;;4894019;29;20032;-83
2021/03/03 01:48:59;;;;;;;17.40;7.63;;;;;;;;;;4883593;29;20550;-83
2021/03/03 01:51:25;;;;;;;12.02;6.70;;;;;;;;;;4889448;29;20028;-84
2021/03/03 01:53:53;;;;;;;18.63;6.68;;;;;;;;;;4901130;29;20039;-84
2021/03/03 01:56:19;;;;;;;12.80;6.00;;;;;;;;;;4901763;29;20032;-84
2021/03/03 01:58:45;;;;;;;11.93;5.90;;;;;;;;;;4884020;29;20492;-84
2021/03/03 02:01:11;;;;;;;9.75;5.65;;;;;;;;;;4880926;29;20060;-83
2021/03/03 02:03:39;;;;;;;14.52;5.32;;;;;;;;;;4882368;29;20116;-83
2021/03/03 02:06:10;;;;;;;11.00;5.57;;;;;;;;;;4881175;29;20033;-84
2021/03/03 02:08:42;;;;;;;8.18;4.68;;;;;;;;;;4882651;29;20025;-84
2021/03/03 02:11:20;;;;;;;10.48;5.13;;;;;;;;;;4882973;29;20442;-84
2021/03/03 02:13:50;;;;;;;11.50;5.50;;;;;;;;;;4880541;29;20052;-84
2021/03/03 02:16:16;;;;;;;13.77;5.80;;;;;;;;;;4882349;29;20039;-84
2021/03/03 02:18:43;;;;;;;9.10;5.82;;;;;;;;;;4880974;29;20036;-83
2021/03/03 02:21:27;;;;;;;12.63;6.13;;;;;;;;;;4881339;29;20490;-83
2021/03/03 02:23:56;;;;;;;19.20;7.35;;;;;;;;;;4881966;29;20033;-84
2021/03/03 02:26:33;;;;;;;11.68;6.00;;;;;;;;;;4881495;29;20025;-83
2021/03/03 02:28:59;;;;;;;10.05;6.05;;;;;;;;;;4882660;29;20045;-83
2021/03/03 02:31:26;;;;;;;14.15;6.43;;;;;;;;;;4882377;29;20025;-83
2021/03/03 02:33:52;;;;;;;11.65;6.28;;;;;;;;;;4885417;29;20098;-83
2021/03/03 02:36:18;;;;;;;12.00;5.97;;;;;;;;;;4886339;29;20512;-83
2021/03/03 02:38:44;;;;;;;12.20;5.80;;;;;;;;;;4885034;29;20037;-84
2021/03/03 02:41:11;;;;;;;9.50;5.78;;;;;;;;;;4886034;29;20506;-84
2021/03/03 02:43:37;;;;;;;12.27;5.50;;;;;;;;;;4885039;29;20037;-83
2021/03/03 02:46:05;;;;;;;12.52;6.55;;;;;;;;;;4884765;29;20029;-83
2021/03/03 02:48:32;;;;;;;13.68;6.40;;;;;;;;;;4886104;29;20529;-84
2021/03/03 02:50:58;;;;;;;14.77;6.65;;;;;;;;;;4884905;29;20116;-83
2021/03/03 02:53:24;;;;;;;14.15;6.70;;;;;;;;;;4883692;29;20513;-84
2021/03/03 02:55:50;;;;;;;12.82;7.22;;;;;;;;;;4885606;29;20105;-83
2021/03/03 02:58:16;;;;;;;12.32;6.65;;;;;;;;;;4885398;29;20056;-83
2021/03/03 03:00:42;;;;;;;14.32;7.53;;;;;;;;;;4894327;29;20441;-83
2021/03/03 03:03:24;;;;;;;18.67;8.80;;;;;;;;;;4903618;29;20063;-84
2021/03/03 03:06:10;;;;;;;16.63;8.15;;;;;;;;;;4903207;29;20024;-83
2021/03/03 03:08:38;;;;;;;44.58;28.23;;;;;;;;;;4902567;29;20096;-83
2021/03/03 03:11:04;;;;;;;18.80;13.05;;;;;;;;;;4902731;29;20024;-83
2021/03/03 03:13:32;;;;;;;31.83;23.48;;;;;;;;;;4903561;29;20096;-84
2021/03/03 03:15:59;;;;;;;18.58;11.27;;;;;;;;;;4903348;29;20428;-84
2021/03/03 03:18:27;;;;;;;28.10;16.70;;;;;;;;;;4903798;29;20116;-83
2021/03/03 03:20:54;;;;;;;23.70;15.32;;;;;;;;;;4904327;29;20035;-84
2021/03/03 03:23:21;;;;;;;19.70;13.00;;;;;;;;;;4903855;29;20039;-84
2021/03/03 03:25:47;;;;;;;21.92;15.00;;;;;;;;;;4904059;29;20036;-83
2021/03/03 03:28:14;;;;;;;16.88;7.43;;;;;;;;;;4902689;29;20039;-83
2021/03/03 03:30:40;;;;;;;13.90;7.18;;;;;;;;;;4887005;29;20404;-84
2021/03/03 03:33:06;;;;;;;17.48;10.02;;;;;;;;;;4903899;29;20116;-83
2021/03/03 03:35:32;;;;;;;13.75;8.02;;;;;;;;;;4886341;29;20040;-83
2021/03/03 03:38:00;;;;;;;19.63;10.13;;;;;;;;;;4904282;29;20029;-83
2021/03/03 03:40:26;;;;;;;11.35;6.90;;;;;;;;;;4903634;29;20036;-83
2021/03/03 03:42:56;;;;;;;12.93;7.78;;;;;;;;;;4902555;29;20068;-83
2021/03/03 03:45:26;;;;;;;12.98;6.22;;;;;;;;;;4886312;29;20024;-84
2021/03/03 03:47:53;;;;;;;11.45;6.50;;;;;;;;;;4903594;29;20033;-84
2021/03/03 03:50:20;;;;;;;10.70;5.10;;;;;;;;;;4903125;29;20020;-83
2021/03/03 03:52:47;;;;;;;9.98;4.93;;;;;;;;;;4888339;29;20036;-83
2021/03/03 03:55:13;;;;;;;8.25;4.78;;;;;;;;;;4903175;29;20025;-84
2021/03/03 03:57:57;;;;;;;8.68;5.32;;;;;;;;;;4903557;29;20080;-84
2021/03/03 04:00:23;;;;;;;10.45;4.75;;;;;;;;;;4902986;29;20091;-83
2021/03/03 04:02:50;;;;;;;9.65;4.72;;;;;;;;;;4902818;29;20040;-83
2021/03/03 04:05:17;;;;;;;8.57;5.22;;;;;;;;;;4902819;29;20025;-83
2021/03/03 04:07:43;;;;;;;14.98;5.50;;;;;;;;;;4903175;29;20024;-84
2021/03/03 04:10:10;;;;;;;10.10;5.18;;;;;;;;;;4885841;29;20037;-84
2021/03/03 04:12:36;;;;;;;10.30;4.60;;;;;;;;;;4903357;29;20172;-83
2021/03/03 04:15:03;;;;;;;9.50;5.93;;;;;;;;;;4885951;29;20032;-83
2021/03/03 04:17:30;;;;;;;11.23;5.28;;;;;;;;;;4902152;29;20035;-84
2021/03/03 04:19:56;;;;;;;10.40;5.25;;;;;;;;;;4902877;29;20128;-83
2021/03/03 04:22:22;;;;;;;10.35;4.97;;;;;;;;;;4902341;29;20032;-83
2021/03/03 04:24:48;;;;;;;11.30;5.00;;;;;;;;;;4902597;29;20035;-83
2021/03/03 04:27:14;;;;;;;10.55;5.38;;;;;;;;;;4902679;29;20025;-84
2021/03/03 04:29:40;;;;;;;10.82;4.95;;;;;;;;;;4885450;29;20037;-83
2021/03/03 04:32:06;;;;;;;9.88;5.18;;;;;;;;;;4884926;29;20030;-83
2021/03/03 04:34:33;;;;;;;8.75;4.78;;;;;;;;;;4902617;29;20370;-83
2021/03/03 04:36:59;;;;;;;7.82;4.63;;;;;;;;;;4903030;29;20032;-83
2021/03/03 04:39:25;;;;;;;12.98;4.55;;;;;;;;;;4902438;29;20041;-83
2021/03/03 04:41:51;;;;;;;10.52;4.72;;;;;;;;;;4901706;29;20029;-84
2021/03/03 04:44:17;;;;;;;12.65;5.07;;;;;;;;;;4902097;29;20037;-84
2021/03/03 04:46:43;;;;;;;10.48;4.88;;;;;;;;;;4901626;29;20025;-83
2021/03/03 04:49:09;;;;;;;9.38;4.63;;;;;;;;;;4901991;29;20028;-84
2021/03/03 04:51:36;;;;;;;13.07;5.18;;;;;;;;;;4884394;29;20404;-83
2021/03/03 04:54:02;;;;;;;14.98;5.40;;;;;;;;;;4902305;29;20020;-83
2021/03/03 04:56:28;;;;;;;10.13;5.32;;;;;;;;;;4901971;29;20483;-84
2021/03/03 04:58:54;;;;;;;10.38;5.22;;;;;;;;;;4902161;29;20036;-84
2021/03/03 05:01:20;;;;;;;11.35;5.18;;;;;;;;;;4901465;29;20048;-83
2021/03/03 05:03:47;;;;;;;11.85;5.22;;;;;;;;;;4901341;29;20131;-84
2021/03/03 05:06:13;;;;;;;9.40;5.20;;;;;;;;;;4901934;29;20029;-84
2021/03/03 05:08:39;;;;;;;10.07;5.57;;;;;;;;;;4900633;29;20552;-83
2021/03/03 05:11:05;;;;;;;12.75;6.13;;;;;;;;;;4902023;29;20028;-83
2021/03/03 05:13:31;;;;;;;11.30;5.85;;;;;;;;;;4901607;29;20029;-84
2021/03/03 05:15:58;;;;;;;12.75;6.22;;;;;;;;;;4900621;29;20044;-83
2021/03/03 05:18:24;;;;;;;14.10;6.47;;;;;;;;;;4900049;29;20036;-83
2021/03/03 05:20:50;;;;;;;8.07;5.45;;;;;;;;;;4901876;29;20068;-83
2021/03/03 05:23:32;;;;;;;14.00;6.00;;;;;;;;;;4901294;29;20080;-83
2021/03/03 05:25:58;;;;;;;19.88;6.97;;;;;;;;;;4916103;29;20040;-83
2021/03/03 05:28:25;;;;;;;13.40;6.13;;;;;;;;;;4901673;29;20515;-83
2021/03/03 05:30:51;;;;;;;14.00;6.45;;;;;;;;;;4901479;29;20569;-83
2021/03/03 05:33:44;;;;;;;16.77;6.03;;;;;;;;;;4901030;29;20028;-84
2021/03/03 05:36:11;;;;;;;11.38;6.00;;;;;;;;;;4899455;29;20500;-83
2021/03/03 05:38:38;;;;;;;14.32;6.38;;;;;;;;;;4915817;29;20055;-84
2021/03/03 05:41:04;;;;;;;12.20;6.20;;;;;;;;;;4901769;29;20453;-83
2021/03/03 05:43:31;;;;;;;11.57;5.80;;;;;;;;;;4915477;29;20430;-83
2021/03/03 05:45:58;;;;;;;13.80;6.63;;;;;;;;;;4901841;29;20088;-83
2021/03/03 05:48:25;;;;;;;12.57;7.05;;;;;;;;;;4901345;29;20046;-83
2021/03/03 05:50:57;;;;;;;14.25;7.32;;;;;;;;;;4914886;29;20021;-84
2021/03/03 05:53:27;;;;;;;10.00;6.22;;;;;;;;;;4884277;29;20041;-83
2021/03/03 05:55:54;;;;;;;10.90;6.60;;;;;;;;;;4901924;29;20108;-83
2021/03/03 05:58:21;;;;;;;19.60;7.68;;;;;;;;;;4901561;29;20539;-83
2021/03/03 06:00:49;;;;;;;18.02;6.90;;;;;;;;;;4884422;29;20389;-83
2021/03/03 06:03:16;;;;;;;17.20;7.80;;;;;;;;;;4883619;29;20103;-83
2021/03/03 06:05:42;;;;;;;12.38;7.47;;;;;;;;;;4901724;29;20032;-83
2021/03/03 06:08:08;;;;;;;12.18;7.13;;;;;;;;;;4900538;29;20024;-83
2021/03/03 06:10:34;;;;;;;18.52;7.45;;;;;;;;;;4884509;29;20496;-83
2021/03/03 06:13:01;;;;;;;13.15;7.03;;;;;;;;;;4901137;29;20029;-83
2021/03/03 06:15:27;;;;;;;17.20;7.75;;;;;;;;;;4901684;29;20093;-84
2021/03/03 06:17:53;;;;;;;22.02;8.02;;;;;;;;;;4883717;29;20504;-84
2021/03/03 06:20:19;;;;;;;13.40;8.00;;;;;;;;;;4900992;29;20033;-84
2021/03/03 06:22:46;;;;;;;18.55;8.48;;;;;;;;;;4901367;29;20033;-84
2021/03/03 06:25:20;;;;;;;13.10;8.10;;;;;;;;;;4901408;29;20477;-84
2021/03/03 06:27:46;;;;;;;14.57;7.70;;;;;;;;;;4883469;29;20496;-83
2021/03/03 06:30:16;;;;;;;11.98;7.55;;;;;;;;;;4901377;29;20032;-84
2021/03/03 06:33:00;;;;;;;16.23;9.73;;;;;;;;;;4883804;29;20040;-83
2021/03/03 06:35:34;;;;;;;18.10;9.50;;;;;;;;;;4901180;29;20036;-83
2021/03/03 06:38:00;;;;;;;;;;;;;;;;;;4884599;29;20036;-83
2021/03/03 06:40:27;;;;;;;14.98;8.38;;;;;;;;;;4900998;29;19912;-84
2021/03/03 06:42:53;;;;;;;17.08;7.55;;;;;;;;;;4883551;29;20056;-83
2021/03/03 06:45:29;;;;;;;18.20;8.68;;;;;;;;;;4901004;29;20084;-83
2021/03/03 06:47:56;;;;;;;16.52;7.47;;;;;;;;;;4883527;29;20140;-83
2021/03/03 06:50:31;;;;;;;14.30;8.30;;;;;;;;;;4884514;29;20052;-83
2021/03/03 06:52:57;;;;;;;15.90;8.63;;;;;;;;;;4883090;29;20032;-84
2021/03/03 06:55:23;;;;;;;15.63;8.65;;;;;;;;;;4900769;29;20033;-83
2021/03/03 06:57:49;;;;;;;13.90;8.52;;;;;;;;;;4901547;29;20497;-83
2021/03/03 07:00:15;;;;;;;14.93;8.98;;;;;;;;;;4884494;29;20139;-83
2021/03/03 07:02:43;;;;;;;15.07;7.97;;;;;;;;;;4901462;29;20040;-84
2021/03/03 07:05:11;;;;;;;11.65;7.50;;;;;;;;;;4901444;29;20576;-83
2021/03/03 07:07:37;;;;;;;13.73;8.00;;;;;;;;;;4901570;29;20095;-83
2021/03/03 07:10:04;;;;;;;20.38;9.32;;;;;;;;;;4901450;29;20023;-83
2021/03/03 07:12:31;;;;;;;20.70;8.75;;;;;;;;;;4901603;29;20048;-83
2021/03/03 07:15:00;;;;;;;15.73;8.65;;;;;;;;;;4883805;29;20033;-83
2021/03/03 07:17:36;;;;;;;16.67;8.15;;;;;;;;;;4883420;29;20033;-83
2021/03/03 07:20:07;;;;;;;19.45;9.35;;;;;;;;;;4884842;29;20509;-83
2021/03/03 07:22:34;;;;;;;16.15;7.95;;;;;;;;;;4886237;29;20112;-84
2021/03/03 07:25:02;;;;;;;14.02;7.90;;;;;;;;;;4886206;29;20116;-83
2021/03/03 07:27:28;;;;;;;21.65;8.85;;;;;;;;;;4886438;29;20434;-83
2021/03/03 07:29:57;;;;;;;13.77;8.18;;;;;;;;;;4884582;29;20120;-84
2021/03/03 07:32:23;;;;;;;15.25;9.35;;;;;;;;;;4886047;29;20025;-84
2021/03/03 07:34:51;;;;;;;19.33;7.97;;;;;;;;;;4884779;29;20025;-84
2021/03/03 07:37:18;;;;;;;17.58;8.35;;;;;;;;;;4888138;29;20028;-83
2021/03/03 07:39:47;;;;;;;18.60;8.40;;;;;;;;;;4894235;29;20096;-83
2021/03/03 07:42:20;;;;;;;13.85;7.88;;;;;;;;;;4903386;29;20133;-83
2021/03/03 07:44:47;;;;;;;17.63;7.55;;;;;;;;;;4886585;29;20040;-84
2021/03/03 07:47:15;;;;;;;20.35;8.43;;;;;;;;;;4904444;29;20025;-83
2021/03/03 07:49:41;;;;;;;19.90;7.53;;;;;;;;;;4886654;29;20033;-84
2021/03/03 07:52:07;;;;;;;19.33;7.97;;;;;;;;;;4902354;29;20055;-84
2021/03/03 07:54:33;;;;;;;13.00;7.20;;;;;;;;;;4902512;29;20028;-84
2021/03/03 07:57:03;;;;;;;13.45;8.07;;;;;;;;;;4903370;29;20088;-84
2021/03/03 07:59:29;;;;;;;14.73;6.90;;;;;;;;;;4886799;29;20035;-82
2021/03/03 08:01:56;;;;;;;15.38;7.28;;;;;;;;;;4900236;29;20394;-84
2021/03/03 08:04:35;;;;;;;17.00;8.40;;;;;;;;;;4892954;29;20240;-83
2021/03/03 08:07:22;;;;;;;14.73;7.75;;;;;;;;;;4881829;29;20119;-84
2021/03/03 08:10:07;;;;;;;13.57;7.40;;;;;;;;;;4875404;29;20040;-83
2021/03/03 08:12:33;;;;;;;20.88;7.43;;;;;;;;;;4877044;29;20056;-83
2021/03/03 08:14:59;;;;;;;16.55;6.68;;;;;;;;;;4894697;29;20107;-83
2021/03/03 08:17:26;;;;;;;13.35;7.65;;;;;;;;;;4892353;29;20039;-84
2021/03/03 08:19:52;;;;;;;14.10;7.70;;;;;;;;;;4879910;29;20524;-83
2021/03/03 08:22:21;;;;;;;16.63;7.97;;;;;;;;;;4896664;29;20025;-82
2021/03/03 08:24:47;;;;;;;16.75;8.52;;;;;;;;;;4900333;29;20029;-84
2021/03/03 08:27:28;;;;;;;18.27;8.25;;;;;;;;;;4885541;29;20028;-83
2021/03/03 08:30:24;;;;;;;13.68;7.53;;;;;;;;;;4865375;29;20509;-83
2021/03/03 08:32:50;;;;;;;14.18;7.88;;;;;;;;;;4885157;29;20398;-83
2021/03/03 08:35:36;;;;;;;18.75;7.68;;;;;;;;;;4899133;29;20028;-83
2021/03/03 08:38:15;;;;;;;16.48;7.68;;;;;;;;;;4899996;29;20036;-83
2021/03/03 08:40:41;;;;;;;19.52;7.65;;;;;;;;;;4884493;29;20119;-83
2021/03/03 08:43:28;;;;;;;14.70;7.32;;;;;;;;;;4884960;29;20049;-83
2021/03/03 08:45:54;;;;;;;16.33;7.85;;;;;;;;;;4881276;29;20386;-83
2021/03/03 08:48:20;;;;;;;16.55;8.20;;;;;;;;;;4890832;29;20040;-83
2021/03/03 08:50:46;;;;;;;12.45;7.50;;;;;;;;;;4892737;29;20027;-83
2021/03/03 08:53:19;;;;;;;14.63;8.27;;;;;;;;;;4901407;29;20040;-83
2021/03/03 08:55:45;;;;;;;16.13;7.85;;;;;;;;;;4902844;29;20032;-83
2021/03/03 08:58:30;;;;;;;16.33;7.00;;;;;;;;;;4901890;29;20556;-83
2021/03/03 09:00:56;;;;;;;14.43;7.00;;;;;;;;;;4880750;29;20049;-83
2021/03/03 09:03:22;;;;;;;14.00;6.88;;;;;;;;;;4878311;29;20068;-83
2021/03/03 15:44:23;;;;;;;17.70;10.05;;;;;;;;;;5111256;27;20377;-86
2021/03/03 15:46:49;;;;;;;19.88;10.35;;;;;;;;;;5102073;28;20451;-88
2021/03/03 15:49:15;;;;;;;27.67;10.15;;;;;;;;;;5087101;28;20029;-86
2021/03/03 15:51:41;;;;;;;20.55;10.50;;;;;;;;;;5085797;28;20036;-88
2021/03/03 15:54:07;;;;;;;18.55;9.73;;;;;;;;;;5086132;28;20024;-88
2021/03/03 15:56:33;;;;;;;24.15;10.25;;;;;;;;;;5087221;28;20028;-88
2021/03/03 15:59:01;;;;;;;21.90;9.52;;;;;;;;;;5085506;28;20077;-88
